Time;durP1;ratioP1;P1;durP2;ratioP2;P2;SDS_P1;SDS_P2;PMS_P1;PMS_P2;Temp;Humidity;BMP_temperature;BMP_pressure;BME280_temperature;BME280_humidity;BME280_pressure;Samples;Min_cycle;Max_cycle;Signal;HPM_P1;HPM_P2
2023/06/27 00:00:47;;;;;;;2.17;2.08;;;18.10;83.90;;;;;;5031541;28;20037;-55
2023/06/27 00:03:13;;;;;;;2.83;2.10;;;18.00;84.30;;;;;;5031085;28;20393;-53
2023/06/27 00:05:39;;;;;;;2.22;2.05;;;18.00;84.20;;;;;;5030890;28;20053;-55
2023/06/27 00:08:06;;;;;;;2.00;1.90;;;18.00;84.10;;;;;;5031070;28;20056;-52
2023/06/27 00:10:32;;;;;;;1.75;1.65;;;18.00;84.10;;;;;;5031009;28;20040;-55
2023/06/27 00:12:58;;;;;;;1.83;1.73;;;18.00;83.80;;;;;;5030845;28;20450;-55
2023/06/27 00:15:23;;;;;;;2.03;1.92;;;18.00;83.60;;;;;;5034088;28;20064;-55
2023/06/27 00:17:51;;;;;;;2.38;2.17;;;18.00;83.60;;;;;;5034837;28;20037;-55
2023/06/27 00:20:17;;;;;;;2.45;2.22;;;17.90;83.50;;;;;;5034906;28;20029;-52
2023/06/27 00:22:46;;;;;;;2.03;1.92;;;17.90;83.10;;;;;;5034693;28;20124;-55
2023/06/27 00:25:12;;;;;;;2.00;1.90;;;17.90;83.30;;;;;;5034604;28;20025;-55
2023/06/27 00:27:38;;;;;;;2.42;2.15;;;17.80;82.70;;;;;;5034604;28;20036;-55
2023/06/27 00:30:04;;;;;;;2.13;2.03;;;17.80;82.60;;;;;;5034827;28;20112;-55
2023/06/27 00:32:30;;;;;;;2.00;1.90;;;17.70;82.60;;;;;;5034397;28;20061;-55
2023/06/27 00:34:56;;;;;;;2.08;1.95;;;17.70;82.50;;;;;;5034708;28;20056;-55
2023/06/27 00:37:21;;;;;;;2.10;1.95;;;17.70;82.80;;;;;;5034626;28;20100;-55
2023/06/27 00:39:47;;;;;;;2.25;2.00;;;17.60;82.90;;;;;;5034412;28;20040;-55
2023/06/27 00:42:12;;;;;;;2.17;1.98;;;17.60;82.80;;;;;;5034277;28;20060;-55
2023/06/27 00:44:38;;;;;;;2.13;2.03;;;17.60;83.00;;;;;;5034237;28;20029;-53
2023/06/27 00:47:04;;;;;;;2.38;1.85;;;17.60;83.40;;;;;;5034256;28;20097;-55
2023/06/27 00:49:30;;;;;;;2.70;2.50;;;17.60;83.50;;;;;;5034121;28;20037;-55
2023/06/27 00:51:56;;;;;;;2.30;2.10;;;17.60;83.70;;;;;;5034206;28;20030;-55
2023/06/27 00:54:22;;;;;;;2.30;2.10;;;17.60;83.70;;;;;;5034269;28;20032;-55
2023/06/27 00:56:53;;;;;;;2.20;2.10;;;17.60;83.80;;;;;;5034089;28;20156;-55
2023/06/27 00:59:18;;;;;;;2.00;1.90;;;17.60;83.70;;;;;;5034326;28;20469;-54
2023/06/27 01:01:45;;;;;;;2.40;2.20;;;17.60;83.40;;;;;;5033968;28;20025;-55
2023/06/27 01:04:11;;;;;;;2.40;2.20;;;17.60;83.30;;;;;;5033705;28;20037;-55
2023/06/27 01:06:43;;;;;;;2.53;2.30;;;17.60;83.20;;;;;;5034258;28;20025;-53
2023/06/27 01:09:18;;;;;;;2.08;1.90;;;17.60;83.20;;;;;;5033995;28;20477;-55
2023/06/27 01:11:51;;;;;;;2.50;2.30;;;17.60;83.50;;;;;;5033757;28;20023;-55
2023/06/27 01:14:18;;;;;;;2.25;1.98;;;17.60;83.20;;;;;;5033719;28;20032;-55
2023/06/27 01:16:46;;;;;;;2.30;2.10;;;17.60;83.30;;;;;;5033602;28;20022;-55
2023/06/27 01:19:13;;;;;;;2.28;2.08;;;17.60;83.30;;;;;;5033748;28;20044;-55
2023/06/27 01:21:40;;;;;;;2.15;1.95;;;17.60;83.00;;;;;;5033492;28;20500;-54
2023/06/27 01:24:07;;;;;;;2.10;2.00;;;17.60;82.80;;;;;;5033461;28;20404;-55
2023/06/27 01:26:34;;;;;;;2.10;2.00;;;17.60;82.70;;;;;;5033586;28;20026;-54
2023/06/27 01:28:59;;;;;;;2.08;1.98;;;17.60;82.60;;;;;;5033278;28;20033;-54
2023/06/27 01:31:47;;;;;;;2.08;1.95;;;17.60;82.50;;;;;;5033355;28;20030;-55
2023/06/27 01:34:36;;;;;;;2.42;2.22;;;17.60;82.60;;;;;;5033353;28;20135;-52
2023/06/27 01:37:08;;;;;;;2.30;2.15;;;17.60;82.40;;;;;;5032052;28;20025;-55
2023/06/27 01:39:56;;;;;;;2.35;2.15;;;17.50;82.60;;;;;;5032927;28;20044;-54
2023/06/27 01:42:27;;;;;;;2.33;2.13;;;17.50;82.40;;;;;;5033181;28;20017;-55
2023/06/27 01:44:54;;;;;;;2.20;2.10;;;17.50;82.60;;;;;;5033380;28;20100;-54
2023/06/27 01:47:21;;;;;;;2.50;2.30;;;17.50;82.40;;;;;;5033067;28;20028;-55
2023/06/27 01:49:47;;;;;;;2.35;2.15;;;17.50;82.40;;;;;;5033365;28;20033;-55
2023/06/27 01:52:13;;;;;;;2.53;2.33;;;17.50;82.40;;;;;;5032980;28;20030;-54
2023/06/27 01:54:40;;;;;;;2.38;2.25;;;17.50;82.40;;;;;;5032924;28;20025;-55
2023/06/27 01:57:06;;;;;;;2.50;2.30;;;17.50;82.40;;;;;;5032903;28;20022;-55
2023/06/27 01:59:32;;;;;;;2.40;2.20;;;17.50;82.60;;;;;;5032733;28;20026;-54
2023/06/27 02:01:58;;;;;;;2.60;2.40;;;17.50;82.70;;;;;;5033120;28;20032;-54
2023/06/27 02:04:23;;;;;;;2.67;2.47;;;17.50;82.70;;;;;;5032578;28;20489;-55
2023/06/27 02:06:49;;;;;;;2.40;2.20;;;17.50;82.80;;;;;;5032544;28;20033;-55
2023/06/27 02:09:14;;;;;;;2.90;2.70;;;17.50;82.70;;;;;;5032628;28;20033;-55
2023/06/27 02:11:40;;;;;;;2.85;2.65;;;17.50;82.90;;;;;;5032810;28;20476;-53
2023/06/27 02:14:06;;;;;;;3.00;2.60;;;17.40;82.90;;;;;;5032532;28;20469;-55
2023/06/27 02:16:32;;;;;;;2.40;2.20;;;17.40;82.90;;;;;;5032514;28;20033;-50
2023/06/27 02:18:57;;;;;;;2.50;2.30;;;17.40;82.90;;;;;;5032378;28;20588;-54
2023/06/27 02:21:23;;;;;;;3.00;2.80;;;17.40;83.30;;;;;;5032568;28;20049;-55
2023/06/27 02:23:49;;;;;;;2.50;2.30;;;17.40;83.00;;;;;;5032433;28;20044;-54
2023/06/27 02:26:14;;;;;;;2.72;2.53;;;17.40;83.10;;;;;;5032545;28;20029;-55
2023/06/27 02:28:40;;;;;;;3.08;2.53;;;17.40;83.00;;;;;;5032507;28;20136;-55
2023/06/27 02:31:05;;;;;;;2.72;2.50;;;17.40;83.10;;;;;;5032542;28;20034;-55
2023/06/27 02:33:31;;;;;;;3.03;2.45;;;17.40;83.10;;;;;;5032166;28;20029;-55
2023/06/27 02:35:57;;;;;;;3.15;2.53;;;17.40;83.10;;;;;;5032336;28;20025;-55
2023/06/27 02:38:22;;;;;;;2.60;2.40;;;17.40;83.30;;;;;;5031784;28;20120;-52
2023/06/27 02:40:48;;;;;;;2.70;2.50;;;17.30;83.30;;;;;;5032203;28;20026;-55
2023/06/27 02:43:14;;;;;;;3.15;2.40;;;17.40;83.30;;;;;;5032188;28;20017;-55
2023/06/27 02:45:40;;;;;;;2.60;2.40;;;17.40;83.50;;;;;;5032096;28;20022;-55
2023/06/27 02:48:07;;;;;;;2.83;2.58;;;17.40;83.20;;;;;;5032183;28;20068;-55
2023/06/27 02:50:32;;;;;;;2.58;2.38;;;17.40;83.50;;;;;;5031822;28;20060;-55
2023/06/27 02:52:58;;;;;;;2.83;2.58;;;17.40;83.30;;;;;;5031911;28;20056;-55
2023/06/27 02:55:23;;;;;;;3.10;2.80;;;17.40;83.30;;;;;;5031737;28;20533;-54
2023/06/27 02:57:49;;;;;;;2.78;2.58;;;17.40;83.30;;;;;;5030403;28;20072;-54
2023/06/27 03:00:15;;;;;;;2.80;2.60;;;17.40;83.30;;;;;;5031711;28;20064;-55
2023/06/27 03:02:41;;;;;;;3.17;2.88;;;17.40;83.20;;;;;;5032158;28;20939;-53
2023/06/27 03:05:07;;;;;;;2.83;2.58;;;17.40;83.40;;;;;;5031964;28;20121;-55
2023/06/27 03:07:32;;;;;;;2.85;2.63;;;17.50;83.50;;;;;;5031672;28;20021;-55
2023/06/27 03:09:58;;;;;;;2.70;2.50;;;17.50;83.30;;;;;;5031607;28;20029;-54
2023/06/27 03:12:23;;;;;;;2.72;2.53;;;17.60;83.10;;;;;;5030176;28;20032;-54
2023/06/27 03:14:49;;;;;;;2.55;2.35;;;17.60;82.80;;;;;;5031547;28;20026;-54
2023/06/27 03:17:15;;;;;;;2.65;2.45;;;17.60;82.60;;;;;;5031439;28;20022;-54
2023/06/27 03:19:40;;;;;;;2.95;2.65;;;17.60;82.30;;;;;;5031415;28;20029;-55
2023/06/27 03:22:06;;;;;;;3.03;2.60;;;17.60;82.30;;;;;;5031307;28;20026;-55
2023/06/27 03:24:32;;;;;;;3.08;2.88;;;17.60;82.30;;;;;;5031355;28;20407;-53
2023/06/27 03:26:57;;;;;;;3.45;2.92;;;17.60;82.30;;;;;;5029944;28;20022;-55
2023/06/27 03:29:23;;;;;;;2.75;2.45;;;17.60;82.30;;;;;;5031330;28;20033;-55
2023/06/27 03:31:49;;;;;;;2.90;2.45;;;17.60;82.30;;;;;;5031500;28;20065;-55
2023/06/27 03:34:15;;;;;;;3.15;2.85;;;17.60;82.30;;;;;;5031204;28;20079;-55
2023/06/27 03:36:40;;;;;;;2.70;2.50;;;17.60;82.10;;;;;;5031252;28;20087;-55
2023/06/27 03:39:06;;;;;;;3.05;2.75;;;17.70;82.20;;;;;;5028987;28;20528;-55
2023/06/27 03:41:32;;;;;;;2.90;2.70;;;17.70;82.30;;;;;;5031128;28;20036;-55
2023/06/27 03:43:58;;;;;;;5.40;3.20;;;17.70;82.30;;;;;;5031165;28;20025;-55
2023/06/27 03:46:24;;;;;;;3.17;2.88;;;17.80;82.10;;;;;;5031377;28;20435;-54
2023/06/27 03:48:54;;;;;;;3.13;2.80;;;17.80;82.00;;;;;;5031816;28;20524;-55
2023/06/27 03:51:19;;;;;;;4.72;3.28;;;17.80;81.90;;;;;;5035494;28;20071;-55
2023/06/27 03:53:45;;;;;;;3.58;3.15;;;17.80;82.10;;;;;;5035196;28;20065;-55
2023/06/27 03:56:11;;;;;;;3.13;2.83;;;17.90;81.90;;;;;;5035135;28;20029;-55
2023/06/27 03:58:36;;;;;;;3.40;3.10;;;17.90;81.60;;;;;;5035070;28;20488;-53
2023/06/27 04:01:03;;;;;;;3.20;2.90;;;17.90;81.50;;;;;;5035179;28;20401;-55
2023/06/27 04:03:28;;;;;;;3.35;3.05;;;18.00;81.70;;;;;;5035150;28;20022;-54
2023/06/27 04:05:54;;;;;;;3.22;2.92;;;18.10;81.60;;;;;;5035036;28;20540;-53
2023/06/27 04:08:20;;;;;;;3.55;2.92;;;18.30;82.20;;;;;;5034855;28;20036;-54
2023/06/27 04:10:45;;;;;;;2.85;2.65;;;18.60;81.70;;;;;;5034891;28;20048;-50
2023/06/27 04:13:11;;;;;;;2.70;2.50;;;18.70;80.60;;;;;;5035107;28;20109;-55
2023/06/27 04:15:39;;;;;;;3.10;2.80;;;18.80;80.60;;;;;;5034979;28;20227;-52
2023/06/27 04:18:06;;;;;;;2.90;2.67;;;19.00;80.00;;;;;;5034985;28;20091;-55
2023/06/27 04:20:32;;;;;;;3.13;2.83;;;19.10;79.20;;;;;;5027024;28;20065;-55
2023/06/27 04:22:57;;;;;;;2.75;2.55;;;19.30;79.00;;;;;;5034482;28;20030;-51
2023/06/27 04:25:23;;;;;;;3.50;3.13;;;19.30;78.40;;;;;;5033254;28;20032;-55
2023/06/27 04:27:48;;;;;;;2.88;2.60;;;19.40;78.20;;;;;;5033220;28;20408;-53
2023/06/27 04:30:14;;;;;;;2.83;2.63;;;19.30;77.90;;;;;;5033568;28;20049;-54
2023/06/27 04:32:40;;;;;;;3.00;2.80;;;19.30;77.90;;;;;;5033653;28;20045;-52
2023/06/27 04:35:06;;;;;;;3.38;3.00;;;19.20;78.10;;;;;;5034604;28;20481;-55
2023/06/27 04:37:32;;;;;;;3.10;2.80;;;19.20;78.10;;;;;;5034132;28;20397;-55
2023/06/27 04:39:58;;;;;;;3.47;3.10;;;19.30;78.50;;;;;;5034284;28;20036;-50
2023/06/27 04:42:23;;;;;;;3.00;2.70;;;19.30;78.40;;;;;;5034328;28;20025;-55
2023/06/27 04:44:49;;;;;;;2.88;2.67;;;19.50;78.90;;;;;;5034280;28;20408;-54
2023/06/27 04:47:15;;;;;;;3.08;2.78;;;20.00;79.00;;;;;;5033473;28;20056;-56
2023/06/27 04:49:40;;;;;;;2.97;2.67;;;20.50;78.20;;;;;;5034222;28;20036;-54
2023/06/27 04:52:06;;;;;;;3.83;3.00;;;21.00;76.80;;;;;;5032562;28;20029;-55
2023/06/27 04:54:32;;;;;;;2.63;2.42;;;21.30;77.00;;;;;;5034066;28;20030;-56
2023/06/27 04:56:58;;;;;;;2.80;2.60;;;21.80;75.40;;;;;;5034085;28;20025;-56
2023/06/27 04:59:23;;;;;;;3.72;2.78;;;22.30;75.30;;;;;;5034023;28;20040;-56
2023/06/27 05:01:49;;;;;;;2.80;2.45;;;23.10;74.70;;;;;;5033769;28;20044;-56
2023/06/27 05:04:15;;;;;;;2.42;2.30;;;23.90;73.00;;;;;;5033661;28;20037;-56
2023/06/27 05:06:40;;;;;;;2.28;2.10;;;24.50;71.30;;;;;;5034076;28;20022;-55
2023/06/27 05:09:06;;;;;;;3.10;2.83;;;25.10;69.60;;;;;;5034118;28;20056;-55
2023/06/27 05:11:32;;;;;;;2.63;2.42;;;25.60;68.00;;;;;;5030544;28;20037;-57
2023/06/27 05:13:57;;;;;;;2.58;2.38;;;26.10;67.40;;;;;;5034630;28;20036;-57
2023/06/27 05:16:23;;;;;;;2.97;2.63;;;26.70;66.40;;;;;;5030596;28;20524;-57
2023/06/27 05:18:49;;;;;;;2.50;2.30;;;27.40;64.90;;;;;;5032582;28;20065;-56
2023/06/27 05:21:14;;;;;;;3.10;2.40;;;28.00;62.90;;;;;;5033021;28;20048;-57
2023/06/27 05:23:40;;;;;;;2.50;2.30;;;28.40;61.10;;;;;;5033653;28;20044;-57
2023/06/27 05:26:06;;;;;;;2.67;2.22;;;28.50;59.80;;;;;;5032561;28;20481;-56
2023/06/27 05:28:35;;;;;;;2.75;2.38;;;28.30;59.20;;;;;;5032459;28;20091;-52
2023/06/27 05:31:00;;;;;;;2.90;2.50;;;27.80;58.90;;;;;;5031214;28;20393;-56
2023/06/27 05:33:26;;;;;;;2.63;2.42;;;27.30;58.90;;;;;;5032052;28;20025;-56
2023/06/27 05:35:51;;;;;;;3.03;2.67;;;26.70;59.80;;;;;;5032263;28;20033;-51
2023/06/27 05:38:17;;;;;;;2.70;2.50;;;26.10;60.70;;;;;;5032359;28;20432;-55
2023/06/27 05:40:43;;;;;;;2.70;2.50;;;25.50;61.20;;;;;;5035469;28;20033;-56
2023/06/27 05:43:08;;;;;;;3.60;2.63;;;25.00;61.80;;;;;;5033411;28;20036;-56
2023/06/27 05:45:34;;;;;;;3.28;2.92;;;24.60;62.60;;;;;;5032434;28;20576;-56
2023/06/27 05:48:00;;;;;;;3.42;2.88;;;24.30;63.30;;;;;;5032651;28;20025;-56
2023/06/27 05:50:26;;;;;;;2.83;2.60;;;24.00;63.70;;;;;;5032724;28;20029;-56
2023/06/27 05:52:52;;;;;;;2.50;2.28;;;23.80;64.20;;;;;;5038449;28;20028;-52
2023/06/27 05:55:19;;;;;;;4.93;3.05;;;23.60;64.50;;;;;;5031384;28;20566;-54
2023/06/27 05:57:44;;;;;;;2.60;2.40;;;23.40;64.80;;;;;;5041583;28;20093;-54
2023/06/27 06:00:10;;;;;;;2.75;2.55;;;23.30;65.30;;;;;;5039523;28;20067;-51
2023/06/27 06:02:37;;;;;;;2.83;2.60;;;23.20;65.60;;;;;;5043998;28;20025;-54
2023/06/27 06:05:04;;;;;;;2.65;2.45;;;23.00;65.90;;;;;;5022970;28;20041;-55
2023/06/27 06:07:30;;;;;;;3.30;2.70;;;23.00;66.20;;;;;;5028029;28;20037;-55
2023/06/27 06:09:56;;;;;;;2.70;2.50;;;22.90;66.30;;;;;;5028925;28;20025;-56
2023/06/27 06:12:21;;;;;;;2.95;2.40;;;22.80;66.40;;;;;;5028619;28;20048;-56
2023/06/27 06:14:47;;;;;;;2.92;2.72;;;22.80;66.50;;;;;;5026380;28;20087;-55
2023/06/27 06:17:13;;;;;;;3.35;2.50;;;22.70;66.70;;;;;;5023279;28;20108;-56
2023/06/27 06:19:39;;;;;;;2.67;2.47;;;22.70;66.70;;;;;;5029964;28;20164;-48
2023/06/27 06:22:05;;;;;;;3.00;2.70;;;22.60;66.70;;;;;;5021453;28;20067;-50
2023/06/27 06:24:30;;;;;;;2.60;2.40;;;22.60;66.90;;;;;;5019277;28;20032;-55
2023/06/27 06:26:56;;;;;;;2.72;2.53;;;22.60;67.00;;;;;;5027719;28;20033;-55
2023/06/27 06:29:22;;;;;;;2.60;2.40;;;22.50;67.10;;;;;;5031559;28;20041;-55
2023/06/27 06:31:47;;;;;;;3.40;2.90;;;22.50;67.00;;;;;;5025736;28;20116;-55
2023/06/27 06:34:13;;;;;;;2.63;2.42;;;22.50;67.10;;;;;;5031064;28;20087;-54
2023/06/27 06:36:38;;;;;;;2.90;2.60;;;22.50;67.00;;;;;;5030680;28;20029;-56
2023/06/27 06:39:04;;;;;;;3.13;2.70;;;22.50;67.10;;;;;;5035997;28;20037;-53
2023/06/27 06:41:30;;;;;;;2.50;2.30;;;22.50;66.80;;;;;;5031765;28;20037;-56
2023/06/27 06:43:56;;;;;;;2.30;2.15;;;22.50;66.40;;;;;;5024979;28;20041;-56
2023/06/27 06:46:22;;;;;;;2.85;2.15;;;22.40;66.30;;;;;;5029177;28;20086;-54
2023/06/27 06:48:47;;;;;;;2.50;2.30;;;22.50;66.30;;;;;;5028015;28;20075;-56
2023/06/27 06:51:13;;;;;;;2.40;2.20;;;22.40;66.10;;;;;;5022569;28;20492;-53
2023/06/27 06:53:39;;;;;;;2.33;2.13;;;22.40;65.80;;;;;;5030723;28;20819;-53
2023/06/27 06:56:04;;;;;;;2.15;2.05;;;22.40;66.00;;;;;;5026403;28;20037;-50
2023/06/27 06:58:30;;;;;;;2.22;2.03;;;22.40;66.00;;;;;;5022743;28;20057;-55
2023/06/27 07:00:56;;;;;;;2.10;1.95;;;22.40;65.90;;;;;;5022485;28;20128;-55
2023/06/27 07:03:21;;;;;;;2.63;2.10;;;22.40;65.80;;;;;;5029515;28;20033;-55
2023/06/27 07:05:47;;;;;;;2.33;2.05;;;22.40;66.10;;;;;;5029357;28;20136;-54
2023/06/27 07:08:13;;;;;;;2.30;2.10;;;22.40;66.30;;;;;;5017705;28;20037;-55
2023/06/27 07:10:39;;;;;;;2.13;1.92;;;22.40;66.40;;;;;;5027223;28;20030;-55
2023/06/27 07:13:06;;;;;;;2.33;2.15;;;22.40;66.40;;;;;;5025247;28;20471;-54
2023/06/27 07:15:33;;;;;;;1.85;1.75;;;22.40;66.50;;;;;;5026738;28;20025;-55
2023/06/27 07:17:59;;;;;;;1.90;1.80;;;22.40;65.70;;;;;;5022269;28;20452;-54
2023/06/27 07:20:25;;;;;;;2.38;2.17;;;22.40;65.90;;;;;;5023910;28;20087;-54
2023/06/27 07:22:51;;;;;;;2.65;2.08;;;22.40;65.70;;;;;;5026590;28;20713;-54
2023/06/27 07:25:17;;;;;;;1.83;1.73;;;22.40;65.20;;;;;;5027610;28;20029;-54
2023/06/27 07:27:43;;;;;;;1.85;1.75;;;22.40;65.10;;;;;;5020171;28;20157;-53
2023/06/27 07:30:09;;;;;;;1.80;1.70;;;22.40;65.10;;;;;;5031611;28;20463;-55
2023/06/27 07:32:35;;;;;;;2.08;1.88;;;22.40;65.30;;;;;;5025034;28;20113;-57
2023/06/27 07:35:00;;;;;;;2.13;1.77;;;22.40;65.20;;;;;;5026205;28;20100;-52
2023/06/27 07:37:26;;;;;;;2.25;2.10;;;22.40;65.40;;;;;;5030845;28;20353;-51
2023/06/27 07:39:52;;;;;;;2.00;1.90;;;22.40;65.10;;;;;;5023108;28;20034;-52
2023/06/27 07:42:17;;;;;;;2.22;2.03;;;22.40;65.30;;;;;;5024296;28;20389;-57
2023/06/27 07:44:44;;;;;;;2.10;1.60;;;22.40;65.30;;;;;;5030827;28;20053;-55
2023/06/27 07:47:09;;;;;;;1.80;1.70;;;22.40;65.40;;;;;;5022750;28;20397;-54
2023/06/27 07:49:37;;;;;;;2.00;1.90;;;22.40;65.30;;;;;;5021463;28;20021;-51
2023/06/27 07:52:05;;;;;;;1.60;1.50;;;22.40;65.40;;;;;;5023330;28;20449;-47
2023/06/27 07:54:31;;;;;;;2.47;1.92;;;22.50;65.80;;;;;;5023748;28;20029;-53
2023/06/27 07:56:57;;;;;;;1.88;1.77;;;22.50;65.60;;;;;;5023425;28;20554;-57
2023/06/27 07:59:23;;;;;;;1.80;1.70;;;22.50;65.30;;;;;;5017463;28;20074;-56
2023/06/27 08:01:48;;;;;;;1.65;1.55;;;22.50;65.30;;;;;;5019073;28;20041;-56
2023/06/27 08:04:17;;;;;;;2.05;1.85;;;22.50;65.60;;;;;;5020935;28;20175;-55
2023/06/27 08:06:43;;;;;;;1.75;1.65;;;22.60;65.70;;;;;;5020013;28;20075;-58
2023/06/27 08:09:08;;;;;;;1.85;1.75;;;22.60;65.30;;;;;;5018305;28;20897;-58
2023/06/27 08:11:34;;;;;;;1.92;1.83;;;22.60;65.00;;;;;;5020023;28;20453;-54
2023/06/27 08:14:01;;;;;;;2.00;1.90;;;22.60;64.60;;;;;;5026011;28;20061;-54
2023/06/27 08:16:27;;;;;;;1.80;1.67;;;22.60;64.90;;;;;;5024937;28;20070;-58
2023/06/27 08:18:52;;;;;;;2.05;1.95;;;22.60;65.40;;;;;;5029613;28;20499;-53
2023/06/27 08:21:18;;;;;;;1.92;1.83;;;22.60;65.40;;;;;;5021310;28;20029;-55
2023/06/27 08:23:44;;;;;;;2.35;2.15;;;22.60;65.40;;;;;;5022605;28;20079;-55
2023/06/27 08:26:15;;;;;;;1.90;1.80;;;22.70;65.30;;;;;;5032217;28;20661;-57
2023/06/27 08:28:40;;;;;;;2.15;1.95;;;22.70;65.30;;;;;;5021202;28;20037;-55
2023/06/27 08:31:06;;;;;;;1.73;1.63;;;22.70;65.30;;;;;;5017365;28;20092;-58
2023/06/27 08:33:31;;;;;;;1.83;1.73;;;22.70;65.30;;;;;;5014341;28;20115;-58
2023/06/27 08:35:57;;;;;;;2.38;2.15;;;22.70;65.20;;;;;;5022579;28;20053;-57
2023/06/27 08:38:23;;;;;;;2.00;1.90;;;22.60;65.20;;;;;;5025787;28;20087;-56
2023/06/27 08:40:54;;;;;;;2.25;2.10;;;22.60;65.50;;;;;;5023806;28;20507;-58
2023/06/27 08:43:19;;;;;;;2.08;1.90;;;22.60;65.30;;;;;;5026451;28;20030;-55
2023/06/27 08:45:47;;;;;;;2.15;1.95;;;22.60;65.40;;;;;;5018286;28;20112;-54
2023/06/27 08:48:14;;;;;;;2.05;1.92;;;22.60;65.20;;;;;;5026343;28;20029;-58
2023/06/27 08:50:41;;;;;;;3.05;2.10;;;22.60;65.20;;;;;;5021492;28;20029;-55
2023/06/27 08:53:14;;;;;;;2.10;1.90;;;22.50;65.20;;;;;;5027893;28;20119;-56
2023/06/27 08:56:02;;;;;;;2.13;1.92;;;22.50;65.00;;;;;;5024492;28;20220;-55
2023/06/27 08:58:31;;;;;;;2.10;2.00;;;22.50;64.90;;;;;;5020510;28;20034;-52
2023/06/27 09:00:57;;;;;;;2.35;2.15;;;22.50;65.10;;;;;;5022594;28;20025;-56
2023/06/27 09:03:24;;;;;;;2.13;2.03;;;22.50;65.00;;;;;;5027346;28;20028;-57
2023/06/27 09:05:50;;;;;;;2.17;1.95;;;22.40;64.80;;;;;;5023734;28;20552;-58
2023/06/27 09:08:19;;;;;;;2.30;2.13;;;22.50;64.80;;;;;;5030762;28;20036;-57
2023/06/27 09:10:44;;;;;;;2.45;2.25;;;22.40;64.60;;;;;;5023814;28;20050;-57
2023/06/27 09:13:11;;;;;;;2.30;2.10;;;22.50;64.70;;;;;;5026861;28;20489;-57
2023/06/27 09:15:37;;;;;;;2.42;2.22;;;22.40;64.60;;;;;;5029692;28;20033;-53
2023/06/27 09:18:02;;;;;;;2.10;2.00;;;22.40;64.80;;;;;;5024766;28;20029;-56
2023/06/27 09:20:28;;;;;;;2.13;2.03;;;22.50;64.80;;;;;;5027767;28;20551;-58
2023/06/27 09:22:57;;;;;;;2.65;2.45;;;22.50;64.70;;;;;;5027484;28;20021;-57
2023/06/27 09:25:24;;;;;;;3.00;2.40;;;22.50;64.60;;;;;;5021984;28;20030;-61
2023/06/27 09:27:50;;;;;;;2.50;2.30;;;22.50;64.70;;;;;;5016050;28;20036;-58
2023/06/27 09:30:16;;;;;;;2.33;2.13;;;22.50;64.90;;;;;;5026378;28;20036;-57
2023/06/27 09:32:52;;;;;;;1.80;1.70;;;22.50;65.10;;;;;;5022542;28;20022;-51
2023/06/27 09:35:19;;;;;;;2.55;2.35;;;22.50;65.80;;;;;;5027783;28;20029;-58
2023/06/27 09:37:44;;;;;;;2.50;2.30;;;22.40;65.20;;;;;;5022046;28;20498;-58
2023/06/27 09:40:20;;;;;;;3.40;2.10;;;22.40;65.30;;;;;;5024973;28;20049;-60
2023/06/27 09:42:56;;;;;;;2.05;1.85;;;22.40;65.30;;;;;;5016154;28;20041;-57
2023/06/27 09:45:23;;;;;;;2.22;2.05;;;22.50;65.40;;;;;;5020172;28;20034;-59
2023/06/27 09:47:50;;;;;;;2.45;2.25;;;22.40;65.50;;;;;;5021546;28;20038;-56
2023/06/27 09:50:16;;;;;;;2.60;2.40;;;22.50;65.50;;;;;;5026679;28;20072;-55
2023/06/27 09:52:52;;;;;;;2.72;2.50;;;22.40;65.40;;;;;;5027702;28;20037;-54
2023/06/27 09:55:19;;;;;;;2.85;2.53;;;22.50;65.70;;;;;;5021901;28;20515;-57
2023/06/27 09:57:44;;;;;;;2.63;2.40;;;22.50;65.80;;;;;;5022409;28;20108;-57
2023/06/27 10:00:20;;;;;;;2.53;2.33;;;22.50;66.10;;;;;;5027887;28;20113;-55
2023/06/27 10:02:52;;;;;;;2.92;2.50;;;22.50;66.00;;;;;;5024229;28;20017;-57
2023/06/27 10:05:20;;;;;;;3.03;2.78;;;22.50;65.80;;;;;;5025207;28;20045;-55
2023/06/27 10:07:49;;;;;;;3.00;2.70;;;22.50;65.60;;;;;;5025326;28;20028;-56
2023/06/27 10:10:15;;;;;;;4.10;2.90;;;22.50;65.60;;;;;;5026048;28;20025;-57
2023/06/27 10:12:42;;;;;;;3.22;2.92;;;22.50;65.70;;;;;;5026957;28;20021;-57
2023/06/27 10:15:09;;;;;;;3.10;2.80;;;22.50;65.70;;;;;;5028111;28;20034;-53
2023/06/27 10:17:35;;;;;;;3.67;3.20;;;22.50;65.80;;;;;;5019346;28;20026;-50
2023/06/27 10:20:03;;;;;;;3.28;2.92;;;22.60;65.80;;;;;;5017428;28;20033;-50
2023/06/27 10:22:31;;;;;;;2.90;2.70;;;22.60;65.80;;;;;;5022427;28;20030;-54
2023/06/27 10:25:03;;;;;;;3.13;2.78;;;22.60;65.60;;;;;;5021869;28;20064;-55
2023/06/27 10:27:35;;;;;;;2.78;2.58;;;22.60;65.80;;;;;;5025856;28;20634;-57
2023/06/27 10:30:27;;;;;;;4.43;3.20;;;22.60;65.60;;;;;;5021124;28;20034;-53
2023/06/27 10:33:18;;;;;;;3.10;2.80;;;22.70;65.40;;;;;;5022038;28;20393;-56
2023/06/27 10:35:53;;;;;;;4.05;3.22;;;22.60;65.70;;;;;;5026136;28;20048;-56
2023/06/27 10:38:19;;;;;;;3.30;3.00;;;22.70;65.70;;;;;;5020829;28;20033;-52
2023/06/27 10:41:02;;;;;;;3.13;2.83;;;22.70;65.80;;;;;;5024821;28;20104;-57
2023/06/27 10:43:39;;;;;;;3.92;3.30;;;22.70;65.80;;;;;;5023452;28;20021;-55
2023/06/27 10:46:10;;;;;;;3.33;2.95;;;22.70;65.40;;;;;;5025427;28;20048;-54
2023/06/27 10:48:49;;;;;;;;;;;22.80;65.40;;;;;;5026639;28;20033;-52
2023/06/27 10:51:17;;;;;;;3.78;2.95;;;22.70;65.40;;;;;;5024986;28;19917;-49
2023/06/27 10:53:46;;;;;;;3.35;2.78;;;22.70;65.10;;;;;;5029805;28;20056;-57
2023/06/27 10:56:28;;;;;;;2.70;2.50;;;22.80;65.20;;;;;;5025315;28;20039;-58
2023/06/27 10:58:59;;;;;;;2.83;2.60;;;22.80;64.90;;;;;;5021044;28;20109;-55
2023/06/27 11:01:25;;;;;;;3.17;2.88;;;22.80;64.80;;;;;;5019638;28;20032;-58
2023/06/27 11:03:57;;;;;;;3.15;2.85;;;22.80;64.70;;;;;;5025839;28;20610;-57
2023/06/27 11:06:45;;;;;;;2.83;2.63;;;22.80;64.60;;;;;;5015301;28;20049;-56
2023/06/27 11:09:17;;;;;;;3.97;3.08;;;22.90;64.50;;;;;;5011893;28;20159;-54
2023/06/27 11:11:54;;;;;;;2.80;2.60;;;22.90;65.00;;;;;;5016587;28;20037;-54
2023/06/27 11:14:34;;;;;;;3.08;2.78;;;22.90;64.10;;;;;;5026910;28;20688;-53
2023/06/27 11:17:02;;;;;;;3.00;2.70;;;22.90;64.20;;;;;;5025401;28;20025;-56
2023/06/27 11:19:29;;;;;;;4.28;3.50;;;22.90;64.30;;;;;;5025562;28;20079;-52
2023/06/27 11:21:56;;;;;;;3.38;3.08;;;22.90;64.30;;;;;;5026357;28;20037;-56
2023/06/27 11:24:24;;;;;;;3.20;2.90;;;22.90;64.40;;;;;;5026149;28;20599;-54
2023/06/27 11:26:53;;;;;;;4.30;3.13;;;22.90;64.50;;;;;;5027462;28;20017;-56
2023/06/27 11:29:20;;;;;;;3.25;2.95;;;23.00;64.50;;;;;;5029576;28;20037;-54
2023/06/27 11:31:45;;;;;;;3.72;3.33;;;22.90;64.60;;;;;;5026120;28;20032;-56
2023/06/27 11:34:11;;;;;;;3.50;3.20;;;23.00;64.70;;;;;;5027156;28;20033;-56
2023/06/27 11:36:38;;;;;;;4.05;3.63;;;23.00;64.30;;;;;;5020431;28;20525;-56
2023/06/27 11:39:04;;;;;;;4.28;3.40;;;23.00;64.20;;;;;;5025017;28;20116;-56
2023/06/27 11:41:30;;;;;;;3.50;3.15;;;23.00;64.20;;;;;;5022673;28;20022;-51
2023/06/27 11:43:56;;;;;;;3.47;3.10;;;23.00;64.30;;;;;;5027525;28;20048;-56
2023/06/27 11:46:22;;;;;;;3.55;3.20;;;23.00;64.10;;;;;;5025489;28;20030;-54
2023/06/27 11:48:48;;;;;;;3.28;2.97;;;23.00;64.00;;;;;;5014845;28;20034;-57
2023/06/27 11:51:14;;;;;;;3.28;2.97;;;23.00;64.00;;;;;;5018240;28;20033;-54
2023/06/27 11:53:50;;;;;;;3.42;3.13;;;23.00;64.00;;;;;;5020711;28;20037;-57
2023/06/27 11:56:16;;;;;;;4.30;3.28;;;23.00;64.10;;;;;;5024128;28;20029;-54
2023/06/27 11:58:45;;;;;;;3.88;3.45;;;23.10;64.20;;;;;;5020428;28;20036;-56
2023/06/27 12:01:13;;;;;;;3.33;3.03;;;23.10;63.90;;;;;;5022762;28;20033;-56
2023/06/27 12:03:39;;;;;;;4.10;2.95;;;23.10;63.90;;;;;;5013632;28;20033;-55
2023/06/27 12:06:04;;;;;;;5.13;3.40;;;23.10;63.90;;;;;;5020601;28;20056;-53
2023/06/27 12:08:34;;;;;;;4.03;3.20;;;23.10;63.90;;;;;;5026658;28;20034;-54
2023/06/27 12:11:03;;;;;;;3.45;3.10;;;23.10;63.70;;;;;;5024821;28;20036;-49
2023/06/27 12:13:29;;;;;;;3.33;3.03;;;23.20;63.60;;;;;;5026584;28;20033;-56
2023/06/27 12:15:55;;;;;;;3.30;3.00;;;23.20;63.50;;;;;;5027194;28;20214;-55
2023/06/27 12:18:28;;;;;;;3.30;2.90;;;23.20;63.50;;;;;;5028504;28;20133;-55
2023/06/27 12:20:55;;;;;;;3.47;3.15;;;23.20;63.50;;;;;;5026702;28;20060;-54
2023/06/27 12:23:21;;;;;;;3.17;2.88;;;23.20;63.40;;;;;;5028774;28;20115;-56
2023/06/27 12:25:47;;;;;;;3.05;2.80;;;23.20;64.10;;;;;;5026742;28;20545;-55
2023/06/27 12:28:13;;;;;;;3.70;2.97;;;23.30;63.60;;;;;;5022776;28;20026;-55
2023/06/27 12:30:39;;;;;;;2.92;2.72;;;23.30;63.90;;;;;;5026880;28;20037;-55
2023/06/27 12:33:06;;;;;;;4.18;2.70;;;23.30;63.80;;;;;;5023725;28;20036;-52
2023/06/27 12:35:31;;;;;;;3.28;2.97;;;23.30;63.80;;;;;;5026528;28;20416;-55
2023/06/27 12:37:57;;;;;;;3.72;2.90;;;23.30;63.60;;;;;;5023030;28;21444;-56
2023/06/27 12:40:24;;;;;;;2.88;2.65;;;23.30;63.40;;;;;;5026390;28;20079;-54
2023/06/27 12:42:51;;;;;;;2.90;2.60;;;23.30;63.30;;;;;;5028962;28;20056;-55
2023/06/27 12:45:17;;;;;;;3.10;2.80;;;23.30;63.10;;;;;;5025023;28;20653;-55
2023/06/27 12:47:43;;;;;;;3.78;3.05;;;23.30;63.30;;;;;;5028020;28;20021;-55